sensor_id;sensor_type;location;lat;lon;timestamp;temperature;humidity
11043;DHT22;5574;48.786;10.120;2023-11-19T00:02:19;7.60;99.90
11043;DHT22;5574;48.786;10.120;2023-11-19T00:04:47;7.60;99.90
11043;DHT22;5574;48.786;10.120;2023-11-19T00:07:14;7.60;99.90
11043;DHT22;5574;48.786;10.120;2023-11-19T00:09:41;7.60;99.90
11043;DHT22;5574;48.786;10.120;2023-11-19T00:12:09;7.60;99.90
11043;DHT22;5574;48.786;10.120;2023-11-19T00:14:36;7.60;99.90
11043;DHT22;5574;48.786;10.120;2023-11-19T00:17:04;7.60;99.90
11043;DHT22;5574;48.786;10.120;2023-11-19T00:19:30;7.60;99.90
11043;DHT22;5574;48.786;10.120;2023-11-19T00:21:57;7.60;99.90
11043;DHT22;5574;48.786;10.120;2023-11-19T00:24:28;7.60;99.90
11043;DHT22;5574;48.786;10.120;2023-11-19T00:26:54;7.70;99.90
11043;DHT22;5574;48.786;10.120;2023-11-19T00:29:21;7.60;99.90
11043;DHT22;5574;48.786;10.120;2023-11-19T00:31:48;7.60;99.90
11043;DHT22;5574;48.786;10.120;2023-11-19T00:34:16;7.70;99.90
11043;DHT22;5574;48.786;10.120;2023-11-19T00:36:47;7.70;99.90
11043;DHT22;5574;48.786;10.120;2023-11-19T00:39:13;7.60;99.90
11043;DHT22;5574;48.786;10.120;2023-11-19T00:41:41;7.60;99.90
11043;DHT22;5574;48.786;10.120;2023-11-19T00:44:07;7.70;99.90
11043;DHT22;5574;48.786;10.120;2023-11-19T00:46:34;7.60;99.90
11043;DHT22;5574;48.786;10.120;2023-11-19T00:49:01;7.60;99.90
11043;DHT22;5574;48.786;10.120;2023-11-19T00:51:29;7.70;99.90
11043;DHT22;5574;48.786;10.120;2023-11-19T00:53:57;7.60;99.90
11043;DHT22;5574;48.786;10.120;2023-11-19T00:56:24;7.70;99.90
11043;DHT22;5574;48.786;10.120;2023-11-19T00:58:51;7.70;99.90
11043;DHT22;5574;48.786;10.120;2023-11-19T01:01:17;7.70;99.90
11043;DHT22;5574;48.786;10.120;2023-11-19T01:03:44;7.70;99.90
11043;DHT22;5574;48.786;10.120;2023-11-19T01:06:11;7.70;99.90
11043;DHT22;5574;48.786;10.120;2023-11-19T01:08:42;7.70;99.90
11043;DHT22;5574;48.786;10.120;2023-11-19T01:11:09;7.80;99.90
11043;DHT22;5574;48.786;10.120;2023-11-19T01:13:35;7.80;99.90
11043;DHT22;5574;48.786;10.120;2023-11-19T01:16:02;7.80;99.90
11043;DHT22;5574;48.786;10.120;2023-11-19T01:18:29;7.80;99.90
11043;DHT22;5574;48.786;10.120;2023-11-19T01:20:56;7.90;99.90
11043;DHT22;5574;48.786;10.120;2023-11-19T01:23:23;7.90;99.90
11043;DHT22;5574;48.786;10.120;2023-11-19T01:25:51;7.90;99.90
11043;DHT22;5574;48.786;10.120;2023-11-19T01:28:17;7.90;99.90
11043;DHT22;5574;48.786;10.120;2023-11-19T01:30:44;7.90;99.90
11043;DHT22;5574;48.786;10.120;2023-11-19T01:33:11;7.90;99.90
11043;DHT22;5574;48.786;10.120;2023-11-19T01:35:37;7.90;99.90
11043;DHT22;5574;48.786;10.120;2023-11-19T01:38:05;7.90;99.90
11043;DHT22;5574;48.786;10.120;2023-11-19T01:40:34;7.90;99.90
11043;DHT22;5574;48.786;10.120;2023-11-19T01:43:03;7.90;99.90
11043;DHT22;5574;48.786;10.120;2023-11-19T01:45:30;7.90;99.90
11043;DHT22;5574;48.786;10.120;2023-11-19T01:47:59;8.00;99.90
11043;DHT22;5574;48.786;10.120;2023-11-19T01:50:27;8.00;99.90
11043;DHT22;5574;48.786;10.120;2023-11-19T01:52:55;7.90;99.90
11043;DHT22;5574;48.786;10.120;2023-11-19T01:55:24;8.00;99.90
11043;DHT22;5574;48.786;10.120;2023-11-19T01:57:53;8.00;99.90
11043;DHT22;5574;48.786;10.120;2023-11-19T02:00:23;8.00;99.90
11043;DHT22;5574;48.786;10.120;2023-11-19T02:02:51;8.00;99.90
11043;DHT22;5574;48.786;10.120;2023-11-19T02:05:20;8.00;99.90
11043;DHT22;5574;48.786;10.120;2023-11-19T02:07:47;8.00;99.90
11043;DHT22;5574;48.786;10.120;2023-11-19T02:10:15;8.00;99.90
11043;DHT22;5574;48.786;10.120;2023-11-19T02:12:45;8.10;99.90
11043;DHT22;5574;48.786;10.120;2023-11-19T02:15:12;8.10;99.90
11043;DHT22;5574;48.786;10.120;2023-11-19T02:17:40;8.10;99.90
11043;DHT22;5574;48.786;10.120;2023-11-19T02:20:07;8.10;99.90
11043;DHT22;5574;48.786;10.120;2023-11-19T02:22:37;8.10;99.90
11043;DHT22;5574;48.786;10.120;2023-11-19T02:25:07;8.10;99.90
11043;DHT22;5574;48.786;10.120;2023-11-19T02:27:44;8.10;99.90
11043;DHT22;5574;48.786;10.120;2023-11-19T02:30:12;8.10;99.90
11043;DHT22;5574;48.786;10.120;2023-11-19T02:32:41;8.10;99.90
11043;DHT22;5574;48.786;10.120;2023-11-19T02:35:08;8.10;99.90
11043;DHT22;5574;48.786;10.120;2023-11-19T02:37:35;8.10;99.90
11043;DHT22;5574;48.786;10.120;2023-11-19T02:40:01;8.10;99.90
11043;DHT22;5574;48.786;10.120;2023-11-19T02:42:30;8.10;99.90
11043;DHT22;5574;48.786;10.120;2023-11-19T02:44:58;8.20;99.90
11043;DHT22;5574;48.786;10.120;2023-11-19T02:47:25;8.20;99.90
11043;DHT22;5574;48.786;10.120;2023-11-19T02:49:53;8.20;99.90
11043;DHT22;5574;48.786;10.120;2023-11-19T02:52:20;8.20;99.90
11043;DHT22;5574;48.786;10.120;2023-11-19T02:54:46;8.20;99.90
11043;DHT22;5574;48.786;10.120;2023-11-19T02:57:13;8.30;99.90
11043;DHT22;5574;48.786;10.120;2023-11-19T02:59:40;8.40;99.90
11043;DHT22;5574;48.786;10.120;2023-11-19T03:02:10;8.40;99.90
11043;DHT22;5574;48.786;10.120;2023-11-19T03:04:37;8.50;99.90
11043;DHT22;5574;48.786;10.120;2023-11-19T03:07:05;8.60;99.90
11043;DHT22;5574;48.786;10.120;2023-11-19T03:09:32;8.70;99.90
11043;DHT22;5574;48.786;10.120;2023-11-19T03:12:01;8.80;99.90
11043;DHT22;5574;48.786;10.120;2023-11-19T03:14:27;8.80;99.90
11043;DHT22;5574;48.786;10.120;2023-11-19T03:16:54;8.90;99.90
11043;DHT22;5574;48.786;10.120;2023-11-19T03:19:22;8.90;99.90
11043;DHT22;5574;48.786;10.120;2023-11-19T03:21:49;9.00;99.90
11043;DHT22;5574;48.786;10.120;2023-11-19T03:24:15;9.00;99.90
11043;DHT22;5574;48.786;10.120;2023-11-19T03:26:42;9.10;99.90
11043;DHT22;5574;48.786;10.120;2023-11-19T03:29:09;9.10;99.90
11043;DHT22;5574;48.786;10.120;2023-11-19T03:31:35;9.10;99.90
11043;DHT22;5574;48.786;10.120;2023-11-19T03:34:03;9.20;99.90
11043;DHT22;5574;48.786;10.120;2023-11-19T03:36:34;9.20;99.90
11043;DHT22;5574;48.786;10.120;2023-11-19T03:39:01;9.30;99.90
11043;DHT22;5574;48.786;10.120;2023-11-19T03:41:29;9.30;99.90
11043;DHT22;5574;48.786;10.120;2023-11-19T03:43:54;9.30;99.90
11043;DHT22;5574;48.786;10.120;2023-11-19T03:46:22;9.40;99.90
11043;DHT22;5574;48.786;10.120;2023-11-19T03:48:49;9.40;99.90
11043;DHT22;5574;48.786;10.120;2023-11-19T03:51:16;9.40;99.90
11043;DHT22;5574;48.786;10.120;2023-11-19T03:53:45;9.50;99.90
11043;DHT22;5574;48.786;10.120;2023-11-19T03:56:12;9.40;99.90
11043;DHT22;5574;48.786;10.120;2023-11-19T03:58:39;9.50;99.90
11043;DHT22;5574;48.786;10.120;2023-11-19T04:01:05;9.50;99.90
11043;DHT22;5574;48.786;10.120;2023-11-19T04:03:32;9.50;99.90
11043;DHT22;5574;48.786;10.120;2023-11-19T04:05:59;9.50;99.90
11043;DHT22;5574;48.786;10.120;2023-11-19T04:08:25;9.50;99.90
11043;DHT22;5574;48.786;10.120;2023-11-19T04:10:53;9.60;99.90
11043;DHT22;5574;48.786;10.120;2023-11-19T04:13:20;9.50;99.90
11043;DHT22;5574;48.786;10.120;2023-11-19T04:15:49;9.60;99.90
11043;DHT22;5574;48.786;10.120;2023-11-19T04:18:16;9.60;99.90
11043;DHT22;5574;48.786;10.120;2023-11-19T04:20:42;9.60;99.90
11043;DHT22;5574;48.786;10.120;2023-11-19T04:23:09;9.60;99.90
11043;DHT22;5574;48.786;10.120;2023-11-19T04:25:36;9.60;99.90
11043;DHT22;5574;48.786;10.120;2023-11-19T04:28:05;9.70;99.90
11043;DHT22;5574;48.786;10.120;2023-11-19T04:30:32;9.70;99.90
11043;DHT22;5574;48.786;10.120;2023-11-19T04:32:58;9.70;99.90
11043;DHT22;5574;48.786;10.120;2023-11-19T04:35:25;9.70;99.90
11043;DHT22;5574;48.786;10.120;2023-11-19T04:37:52;9.70;99.90
11043;DHT22;5574;48.786;10.120;2023-11-19T04:40:19;9.80;99.90
11043;DHT22;5574;48.786;10.120;2023-11-19T04:42:48;9.80;99.90
11043;DHT22;5574;48.786;10.120;2023-11-19T04:45:16;9.80;99.90
11043;DHT22;5574;48.786;10.120;2023-11-19T04:47:42;9.80;99.90
11043;DHT22;5574;48.786;10.120;2023-11-19T04:50:10;9.80;99.90
11043;DHT22;5574;48.786;10.120;2023-11-19T04:52:37;9.80;99.90
11043;DHT22;5574;48.786;10.120;2023-11-19T04:55:06;9.90;99.90
11043;DHT22;5574;48.786;10.120;2023-11-19T04:57:33;9.90;99.90
11043;DHT22;5574;48.786;10.120;2023-11-19T04:59:59;9.90;99.90
11043;DHT22;5574;48.786;10.120;2023-11-19T05:02:27;9.90;99.90
11043;DHT22;5574;48.786;10.120;2023-11-19T05:04:54;9.90;99.90
11043;DHT22;5574;48.786;10.120;2023-11-19T05:07:21;9.90;99.90
11043;DHT22;5574;48.786;10.120;2023-11-19T05:09:48;9.90;99.90
11043;DHT22;5574;48.786;10.120;2023-11-19T05:12:14;9.90;99.90
11043;DHT22;5574;48.786;10.120;2023-11-19T05:14:41;9.90;99.90
11043;DHT22;5574;48.786;10.120;2023-11-19T05:17:13;9.90;99.90
11043;DHT22;5574;48.786;10.120;2023-11-19T05:19:41;10.00;99.90
11043;DHT22;5574;48.786;10.120;2023-11-19T05:22:08;10.00;99.90
11043;DHT22;5574;48.786;10.120;2023-11-19T05:24:35;10.00;99.90
11043;DHT22;5574;48.786;10.120;2023-11-19T05:27:02;10.00;99.90
11043;DHT22;5574;48.786;10.120;2023-11-19T05:29:29;10.00;99.90
11043;DHT22;5574;48.786;10.120;2023-11-19T05:31:55;10.00;99.90
11043;DHT22;5574;48.786;10.120;2023-11-19T05:34:22;10.00;99.90
11043;DHT22;5574;48.786;10.120;2023-11-19T05:36:50;10.00;99.90
11043;DHT22;5574;48.786;10.120;2023-11-19T05:39:17;10.00;99.90
11043;DHT22;5574;48.786;10.120;2023-11-19T05:41:44;10.00;99.90
11043;DHT22;5574;48.786;10.120;2023-11-19T05:44:10;10.00;99.90
11043;DHT22;5574;48.786;10.120;2023-11-19T05:46:37;10.00;99.90
11043;DHT22;5574;48.786;10.120;2023-11-19T05:49:07;10.10;99.90
11043;DHT22;5574;48.786;10.120;2023-11-19T05:51:36;10.00;99.90
11043;DHT22;5574;48.786;10.120;2023-11-19T05:54:06;10.00;99.90
11043;DHT22;5574;48.786;10.120;2023-11-19T05:56:33;10.10;99.90
11043;DHT22;5574;48.786;10.120;2023-11-19T05:59:00;10.10;99.90
11043;DHT22;5574;48.786;10.120;2023-11-19T06:01:28;10.20;99.90
11043;DHT22;5574;48.786;10.120;2023-11-19T06:03:55;10.10;99.90
11043;DHT22;5574;48.786;10.120;2023-11-19T06:06:22;10.20;99.90
11043;DHT22;5574;48.786;10.120;2023-11-19T06:08:49;10.20;99.90
11043;DHT22;5574;48.786;10.120;2023-11-19T06:11:17;10.20;99.90
11043;DHT22;5574;48.786;10.120;2023-11-19T06:13:46;10.20;99.90
11043;DHT22;5574;48.786;10.120;2023-11-19T06:16:16;10.30;99.90
11043;DHT22;5574;48.786;10.120;2023-11-19T06:18:43;10.30;99.90
11043;DHT22;5574;48.786;10.120;2023-11-19T06:21:10;10.30;99.90
11043;DHT22;5574;48.786;10.120;2023-11-19T06:23:37;10.30;99.90
11043;DHT22;5574;48.786;10.120;2023-11-19T06:26:04;10.30;99.90
11043;DHT22;5574;48.786;10.120;2023-11-19T06:28:32;10.30;99.90
11043;DHT22;5574;48.786;10.120;2023-11-19T06:30:59;10.30;99.90
11043;DHT22;5574;48.786;10.120;2023-11-19T06:33:26;10.40;99.90
11043;DHT22;5574;48.786;10.120;2023-11-19T06:35:53;10.40;99.90
11043;DHT22;5574;48.786;10.120;2023-11-19T06:38:20;10.40;99.90
11043;DHT22;5574;48.786;10.120;2023-11-19T06:40:46;10.40;99.90
11043;DHT22;5574;48.786;10.120;2023-11-19T06:43:13;10.40;99.90
11043;DHT22;5574;48.786;10.120;2023-11-19T06:45:42;10.40;99.90
11043;DHT22;5574;48.786;10.120;2023-11-19T06:48:08;10.40;99.90
11043;DHT22;5574;48.786;10.120;2023-11-19T06:50:36;10.40;99.90
11043;DHT22;5574;48.786;10.120;2023-11-19T06:53:02;10.40;99.90
11043;DHT22;5574;48.786;10.120;2023-11-19T06:55:30;10.40;99.90
11043;DHT22;5574;48.786;10.120;2023-11-19T06:57:59;10.50;99.90
11043;DHT22;5574;48.786;10.120;2023-11-19T07:00:26;10.50;99.90
11043;DHT22;5574;48.786;10.120;2023-11-19T07:02:54;10.50;99.90
11043;DHT22;5574;48.786;10.120;2023-11-19T07:05:21;10.50;99.90
11043;DHT22;5574;48.786;10.120;2023-11-19T07:07:48;10.50;99.90
11043;DHT22;5574;48.786;10.120;2023-11-19T07:10:15;10.50;99.90
11043;DHT22;5574;48.786;10.120;2023-11-19T07:12:42;10.50;99.90
11043;DHT22;5574;48.786;10.120;2023-11-19T07:15:10;10.60;99.90
11043;DHT22;5574;48.786;10.120;2023-11-19T07:17:38;10.60;99.90
11043;DHT22;5574;48.786;10.120;2023-11-19T07:20:08;10.60;99.90
11043;DHT22;5574;48.786;10.120;2023-11-19T07:22:42;10.60;99.90
11043;DHT22;5574;48.786;10.120;2023-11-19T07:25:11;10.60;99.90
11043;DHT22;5574;48.786;10.120;2023-11-19T07:27:39;10.60;99.90
11043;DHT22;5574;48.786;10.120;2023-11-19T07:30:06;10.60;99.90
11043;DHT22;5574;48.786;10.120;2023-11-19T07:32:33;10.70;99.90
11043;DHT22;5574;48.786;10.120;2023-11-19T07:35:00;10.70;99.90
11043;DHT22;5574;48.786;10.120;2023-11-19T07:37:28;10.70;99.90
11043;DHT22;5574;48.786;10.120;2023-11-19T07:39:55;10.70;99.90
11043;DHT22;5574;48.786;10.120;2023-11-19T07:42:21;10.80;99.90
11043;DHT22;5574;48.786;10.120;2023-11-19T07:44:49;10.80;99.90
11043;DHT22;5574;48.786;10.120;2023-11-19T07:47:16;10.70;99.90
11043;DHT22;5574;48.786;10.120;2023-11-19T07:49:42;10.70;99.90
11043;DHT22;5574;48.786;10.120;2023-11-19T07:52:10;10.80;99.90
11043;DHT22;5574;48.786;10.120;2023-11-19T07:54:38;10.80;99.90
11043;DHT22;5574;48.786;10.120;2023-11-19T07:57:05;10.80;99.90
11043;DHT22;5574;48.786;10.120;2023-11-19T07:59:31;10.80;99.90
11043;DHT22;5574;48.786;10.120;2023-11-19T08:01:58;10.90;99.90
11043;DHT22;5574;48.786;10.120;2023-11-19T08:04:25;10.90;99.90
11043;DHT22;5574;48.786;10.120;2023-11-19T08:06:51;11.00;99.90
11043;DHT22;5574;48.786;10.120;2023-11-19T08:09:18;11.00;99.90
11043;DHT22;5574;48.786;10.120;2023-11-19T08:11:46;11.00;99.90
11043;DHT22;5574;48.786;10.120;2023-11-19T08:14:13;11.00;99.90
11043;DHT22;5574;48.786;10.120;2023-11-19T08:16:39;11.00;99.90
11043;DHT22;5574;48.786;10.120;2023-11-19T08:19:06;11.10;99.90
11043;DHT22;5574;48.786;10.120;2023-11-19T08:21:33;11.10;99.90
11043;DHT22;5574;48.786;10.120;2023-11-19T08:24:00;11.10;99.90
11043;DHT22;5574;48.786;10.120;2023-11-19T08:26:27;11.10;99.90
11043;DHT22;5574;48.786;10.120;2023-11-19T08:28:55;11.10;99.90
11043;DHT22;5574;48.786;10.120;2023-11-19T08:31:24;11.10;99.90
11043;DHT22;5574;48.786;10.120;2023-11-19T08:33:51;11.10;99.90
11043;DHT22;5574;48.786;10.120;2023-11-19T08:36:17;11.20;99.90
11043;DHT22;5574;48.786;10.120;2023-11-19T08:38:44;11.30;99.90
11043;DHT22;5574;48.786;10.120;2023-11-19T08:41:11;11.30;99.90
11043;DHT22;5574;48.786;10.120;2023-11-19T08:43:38;11.40;99.90
11043;DHT22;5574;48.786;10.120;2023-11-19T08:46:10;11.40;99.90
11043;DHT22;5574;48.786;10.120;2023-11-19T08:48:37;11.40;99.90
11043;DHT22;5574;48.786;10.120;2023-11-19T08:51:04;11.50;99.90
11043;DHT22;5574;48.786;10.120;2023-11-19T08:53:31;11.50;99.90
11043;DHT22;5574;48.786;10.120;2023-11-19T08:55:58;11.50;99.90
11043;DHT22;5574;48.786;10.120;2023-11-19T08:58:25;11.60;99.90
11043;DHT22;5574;48.786;10.120;2023-11-19T09:00:52;11.70;99.90
11043;DHT22;5574;48.786;10.120;2023-11-19T09:03:20;11.80;99.90
11043;DHT22;5574;48.786;10.120;2023-11-19T09:05:47;11.90;99.90
11043;DHT22;5574;48.786;10.120;2023-11-19T09:08:14;12.00;99.90
11043;DHT22;5574;48.786;10.120;2023-11-19T09:10:40;12.00;99.90
11043;DHT22;5574;48.786;10.120;2023-11-19T09:13:07;12.20;99.90
11043;DHT22;5574;48.786;10.120;2023-11-19T09:15:34;12.30;99.90
11043;DHT22;5574;48.786;10.120;2023-11-19T09:18:00;12.30;99.90
11043;DHT22;5574;48.786;10.120;2023-11-19T09:20:28;12.40;99.90
11043;DHT22;5574;48.786;10.120;2023-11-19T09:23:03;12.50;99.90
11043;DHT22;5574;48.786;10.120;2023-11-19T09:25:29;12.80;99.90
11043;DHT22;5574;48.786;10.120;2023-11-19T09:27:57;13.10;99.90
11043;DHT22;5574;48.786;10.120;2023-11-19T09:30:24;13.10;99.90
11043;DHT22;5574;48.786;10.120;2023-11-19T09:32:50;12.90;99.90
11043;DHT22;5574;48.786;10.120;2023-11-19T09:35:17;12.80;99.90
11043;DHT22;5574;48.786;10.120;2023-11-19T09:37:45;12.60;99.90
11043;DHT22;5574;48.786;10.120;2023-11-19T09:40:12;12.50;99.90
11043;DHT22;5574;48.786;10.120;2023-11-19T09:42:43;12.60;99.90
11043;DHT22;5574;48.786;10.120;2023-11-19T09:45:13;12.50;99.90
11043;DHT22;5574;48.786;10.120;2023-11-19T09:47:42;12.60;99.90
11043;DHT22;5574;48.786;10.120;2023-11-19T09:50:11;12.80;99.90
11043;DHT22;5574;48.786;10.120;2023-11-19T09:52:40;12.90;99.90
11043;DHT22;5574;48.786;10.120;2023-11-19T09:55:09;13.00;99.90
11043;DHT22;5574;48.786;10.120;2023-11-19T09:57:38;13.20;99.90
11043;DHT22;5574;48.786;10.120;2023-11-19T10:00:06;13.40;99.90
11043;DHT22;5574;48.786;10.120;2023-11-19T10:02:35;13.60;99.90
11043;DHT22;5574;48.786;10.120;2023-11-19T10:05:04;13.70;99.90
11043;DHT22;5574;48.786;10.120;2023-11-19T10:07:32;13.90;99.90
11043;DHT22;5574;48.786;10.120;2023-11-19T10:09:59;13.70;99.90
11043;DHT22;5574;48.786;10.120;2023-11-19T10:12:28;13.60;99.90
11043;DHT22;5574;48.786;10.120;2023-11-19T10:14:56;13.40;99.90
11043;DHT22;5574;48.786;10.120;2023-11-19T10:17:27;13.40;99.90
11043;DHT22;5574;48.786;10.120;2023-11-19T10:19:54;13.60;99.90
11043;DHT22;5574;48.786;10.120;2023-11-19T10:22:22;13.70;99.90
11043;DHT22;5574;48.786;10.120;2023-11-19T10:24:49;13.70;99.90
11043;DHT22;5574;48.786;10.120;2023-11-19T10:27:17;13.60;99.90
11043;DHT22;5574;48.786;10.120;2023-11-19T10:29:46;13.40;99.90
11043;DHT22;5574;48.786;10.120;2023-11-19T10:32:13;13.20;99.90
11043;DHT22;5574;48.786;10.120;2023-11-19T10:34:40;13.10;99.90
11043;DHT22;5574;48.786;10.120;2023-11-19T10:37:08;13.00;99.90
11043;DHT22;5574;48.786;10.120;2023-11-19T10:39:53;13.20;99.90
11043;DHT22;5574;48.786;10.120;2023-11-19T10:42:20;13.60;99.90
11043;DHT22;5574;48.786;10.120;2023-11-19T10:44:48;14.20;99.90
11043;DHT22;5574;48.786;10.120;2023-11-19T10:47:15;14.60;99.90
11043;DHT22;5574;48.786;10.120;2023-11-19T10:49:45;14.90;99.90
11043;DHT22;5574;48.786;10.120;2023-11-19T10:52:15;15.00;99.90
11043;DHT22;5574;48.786;10.120;2023-11-19T10:54:44;15.10;99.90
11043;DHT22;5574;48.786;10.120;2023-11-19T10:57:19;15.30;99.90
11043;DHT22;5574;48.786;10.120;2023-11-19T10:59:49;15.40;99.90
11043;DHT22;5574;48.786;10.120;2023-11-19T11:02:21;15.60;99.90
11043;DHT22;5574;48.786;10.120;2023-11-19T11:04:51;15.90;99.90
11043;DHT22;5574;48.786;10.120;2023-11-19T11:07:20;16.00;99.90
11043;DHT22;5574;48.786;10.120;2023-11-19T11:09:48;16.20;99.90
11043;DHT22;5574;48.786;10.120;2023-11-19T11:12:16;16.20;99.90
11043;DHT22;5574;48.786;10.120;2023-11-19T11:14:44;16.10;99.90
11043;DHT22;5574;48.786;10.120;2023-11-19T11:17:17;15.80;99.90
11043;DHT22;5574;48.786;10.120;2023-11-19T11:19:44;15.50;99.90
11043;DHT22;5574;48.786;10.120;2023-11-19T11:22:12;15.20;99.90
11043;DHT22;5574;48.786;10.120;2023-11-19T11:25:08;14.90;99.90
11043;DHT22;5574;48.786;10.120;2023-11-19T11:28:00;15.00;99.90
11043;DHT22;5574;48.786;10.120;2023-11-19T11:30:42;15.20;99.90
11043;DHT22;5574;48.786;10.120;2023-11-19T11:33:24;15.20;99.90
11043;DHT22;5574;48.786;10.120;2023-11-19T11:35:58;15.40;99.90
11043;DHT22;5574;48.786;10.120;2023-11-19T11:38:28;15.50;99.90
11043;DHT22;5574;48.786;10.120;2023-11-19T11:41:17;15.50;99.90
11043;DHT22;5574;48.786;10.120;2023-11-19T11:43:46;15.60;99.90
11043;DHT22;5574;48.786;10.120;2023-11-19T11:49:25;15.40;99.90
11043;DHT22;5574;48.786;10.120;2023-11-19T11:51:58;15.50;99.90
11043;DHT22;5574;48.786;10.120;2023-11-19T11:54:26;15.50;99.90
11043;DHT22;5574;48.786;10.120;2023-11-19T11:57:03;15.50;99.90
11043;DHT22;5574;48.786;10.120;2023-11-19T11:59:37;15.50;99.90
11043;DHT22;5574;48.786;10.120;2023-11-19T12:02:04;15.50;99.90
11043;DHT22;5574;48.786;10.120;2023-11-19T12:04:35;15.40;99.90
11043;DHT22;5574;48.786;10.120;2023-11-19T12:07:04;15.40;99.90
11043;DHT22;5574;48.786;10.120;2023-11-19T12:09:31;15.40;99.90
11043;DHT22;5574;48.786;10.120;2023-11-19T12:15:03;15.20;99.90
11043;DHT22;5574;48.786;10.120;2023-11-19T12:17:41;15.40;99.90
11043;DHT22;5574;48.786;10.120;2023-11-19T12:20:11;15.10;99.90
11043;DHT22;5574;48.786;10.120;2023-11-19T12:22:39;15.20;99.90
11043;DHT22;5574;48.786;10.120;2023-11-19T12:25:07;15.20;99.90
11043;DHT22;5574;48.786;10.120;2023-11-19T12:27:34;15.30;99.90
11043;DHT22;5574;48.786;10.120;2023-11-19T12:30:00;15.20;99.90
11043;DHT22;5574;48.786;10.120;2023-11-19T12:32:37;15.20;99.90
11043;DHT22;5574;48.786;10.120;2023-11-19T12:35:05;15.20;99.90
11043;DHT22;5574;48.786;10.120;2023-11-19T12:37:33;15.20;99.90
11043;DHT22;5574;48.786;10.120;2023-11-19T12:40:00;15.30;99.90
11043;DHT22;5574;48.786;10.120;2023-11-19T12:42:36;15.30;99.90
11043;DHT22;5574;48.786;10.120;2023-11-19T12:45:04;15.20;99.90
11043;DHT22;5574;48.786;10.120;2023-11-19T12:47:31;15.00;99.90
11043;DHT22;5574;48.786;10.120;2023-11-19T12:49:58;14.80;99.90
11043;DHT22;5574;48.786;10.120;2023-11-19T12:52:25;14.60;99.90
11043;DHT22;5574;48.786;10.120;2023-11-19T12:54:53;14.50;99.90
11043;DHT22;5574;48.786;10.120;2023-11-19T12:57:20;14.50;99.90
11043;DHT22;5574;48.786;10.120;2023-11-19T12:59:56;14.50;99.90
11043;DHT22;5574;48.786;10.120;2023-11-19T13:02:23;14.50;99.90
11043;DHT22;5574;48.786;10.120;2023-11-19T13:04:49;14.40;99.90
11043;DHT22;5574;48.786;10.120;2023-11-19T13:07:20;14.30;99.90
11043;DHT22;5574;48.786;10.120;2023-11-19T13:09:47;14.40;99.90
11043;DHT22;5574;48.786;10.120;2023-11-19T13:12:15;14.40;99.90
11043;DHT22;5574;48.786;10.120;2023-11-19T13:14:42;14.30;99.90
11043;DHT22;5574;48.786;10.120;2023-11-19T13:17:13;14.30;99.90
11043;DHT22;5574;48.786;10.120;2023-11-19T13:19:40;14.30;99.90
11043;DHT22;5574;48.786;10.120;2023-11-19T13:22:07;14.40;99.90
11043;DHT22;5574;48.786;10.120;2023-11-19T13:24:34;14.40;99.90
11043;DHT22;5574;48.786;10.120;2023-11-19T13:27:00;14.40;99.90
11043;DHT22;5574;48.786;10.120;2023-11-19T13:29:28;14.40;99.90
11043;DHT22;5574;48.786;10.120;2023-11-19T13:31:55;14.40;99.90
11043;DHT22;5574;48.786;10.120;2023-11-19T13:34:22;14.40;99.90
11043;DHT22;5574;48.786;10.120;2023-11-19T13:36:48;14.40;99.90
11043;DHT22;5574;48.786;10.120;2023-11-19T13:39:15;14.40;99.90
11043;DHT22;5574;48.786;10.120;2023-11-19T13:41:48;14.30;99.90
11043;DHT22;5574;48.786;10.120;2023-11-19T13:44:15;14.30;99.90
11043;DHT22;5574;48.786;10.120;2023-11-19T13:46:45;14.30;99.90
11043;DHT22;5574;48.786;10.120;2023-11-19T13:49:12;14.30;99.90
11043;DHT22;5574;48.786;10.120;2023-11-19T13:51:39;14.20;99.90
11043;DHT22;5574;48.786;10.120;2023-11-19T13:54:06;14.20;99.90
11043;DHT22;5574;48.786;10.120;2023-11-19T13:56:32;14.20;99.90
11043;DHT22;5574;48.786;10.120;2023-11-19T13:58:59;14.20;99.90
11043;DHT22;5574;48.786;10.120;2023-11-19T14:01:26;14.20;99.90
11043;DHT22;5574;48.786;10.120;2023-11-19T14:03:54;14.20;99.90
11043;DHT22;5574;48.786;10.120;2023-11-19T14:06:21;14.20;99.90
11043;DHT22;5574;48.786;10.120;2023-11-19T14:08:47;14.20;99.90
11043;DHT22;5574;48.786;10.120;2023-11-19T14:11:14;14.10;99.90
11043;DHT22;5574;48.786;10.120;2023-11-19T14:13:41;14.00;99.90
11043;DHT22;5574;48.786;10.120;2023-11-19T14:16:08;14.00;99.90
11043;DHT22;5574;48.786;10.120;2023-11-19T14:18:36;14.00;99.90
11043;DHT22;5574;48.786;10.120;2023-11-19T14:21:04;13.90;99.90
11043;DHT22;5574;48.786;10.120;2023-11-19T14:23:31;13.90;99.90
11043;DHT22;5574;48.786;10.120;2023-11-19T14:25:57;13.80;99.90
11043;DHT22;5574;48.786;10.120;2023-11-19T14:28:24;13.80;99.90
11043;DHT22;5574;48.786;10.120;2023-11-19T14:30:52;13.80;99.90
11043;DHT22;5574;48.786;10.120;2023-11-19T14:33:22;13.80;99.90
11043;DHT22;5574;48.786;10.120;2023-11-19T14:35:49;13.80;99.90
11043;DHT22;5574;48.786;10.120;2023-11-19T14:38:17;13.70;99.90
11043;DHT22;5574;48.786;10.120;2023-11-19T14:40:44;13.70;99.90
11043;DHT22;5574;48.786;10.120;2023-11-19T14:43:11;13.70;99.90
11043;DHT22;5574;48.786;10.120;2023-11-19T14:45:37;13.70;99.90
11043;DHT22;5574;48.786;10.120;2023-11-19T14:48:05;13.70;99.90
11043;DHT22;5574;48.786;10.120;2023-11-19T14:50:32;13.70;99.90
11043;DHT22;5574;48.786;10.120;2023-11-19T14:52:58;13.60;99.90
11043;DHT22;5574;48.786;10.120;2023-11-19T14:55:26;13.60;99.90
11043;DHT22;5574;48.786;10.120;2023-11-19T14:57:53;13.50;99.90
11043;DHT22;5574;48.786;10.120;2023-11-19T15:00:20;13.50;99.90
11043;DHT22;5574;48.786;10.120;2023-11-19T15:02:46;13.40;99.90
11043;DHT22;5574;48.786;10.120;2023-11-19T15:05:13;13.40;99.90
11043;DHT22;5574;48.786;10.120;2023-11-19T15:07:40;13.30;99.90
11043;DHT22;5574;48.786;10.120;2023-11-19T15:10:07;13.30;99.90
11043;DHT22;5574;48.786;10.120;2023-11-19T15:12:37;13.20;99.90
11043;DHT22;5574;48.786;10.120;2023-11-19T15:15:07;13.10;99.90
11043;DHT22;5574;48.786;10.120;2023-11-19T15:17:34;13.10;99.90
11043;DHT22;5574;48.786;10.120;2023-11-19T15:20:02;13.10;99.90
11043;DHT22;5574;48.786;10.120;2023-11-19T15:22:29;13.10;99.90
11043;DHT22;5574;48.786;10.120;2023-11-19T15:24:56;13.00;99.90
11043;DHT22;5574;48.786;10.120;2023-11-19T15:27:23;13.00;99.90
11043;DHT22;5574;48.786;10.120;2023-11-19T15:29:51;12.90;99.90
11043;DHT22;5574;48.786;10.120;2023-11-19T15:32:19;12.90;99.90
11043;DHT22;5574;48.786;10.120;2023-11-19T15:34:46;12.90;99.90
11043;DHT22;5574;48.786;10.120;2023-11-19T15:37:12;12.90;99.90
11043;DHT22;5574;48.786;10.120;2023-11-19T15:39:40;12.90;99.90
11043;DHT22;5574;48.786;10.120;2023-11-19T15:42:07;12.80;99.90
11043;DHT22;5574;48.786;10.120;2023-11-19T15:44:35;12.70;99.90
11043;DHT22;5574;48.786;10.120;2023-11-19T15:47:03;12.70;99.90